createdAt,value
2018-11-01T00:02:11.853Z,72.40
2018-11-01T00:07:15.644Z,72.50
2018-11-01T00:12:20.072Z,72.70
2018-11-01T00:17:23.762Z,72.70
2018-11-01T00:22:27.793Z,72.80
2018-11-01T00:27:31.673Z,73.10
2018-11-01T00:32:35.433Z,73.40
2018-11-01T00:37:39.383Z,74.60
2018-11-01T00:42:43.948Z,74.60
2018-11-01T00:47:47.687Z,73.20
2018-11-01T00:52:52.204Z,72.70
2018-11-01T00:57:55.890Z,72.50
2018-11-01T01:02:59.817Z,73.10
2018-11-01T01:08:03.483Z,73.60
2018-11-01T01:13:07.150Z,73.40
2018-11-01T01:18:12.544Z,73.20
2018-11-01T01:23:16.991Z,72.60
2018-11-01T01:28:20.681Z,73.40
2018-11-01T01:33:24.410Z,73.00
2018-11-01T01:38:28.808Z,74.00
2018-11-01T01:43:44.040Z,72.60
2018-11-01T01:48:47.986Z,73.80
2018-11-01T01:53:51.706Z,73.70
2018-11-01T01:58:56.400Z,73.30
2018-11-01T02:04:00.460Z,74.00
2018-11-01T02:09:07.395Z,73.00
2018-11-01T02:14:11.146Z,73.60
2018-11-01T02:19:14.915Z,72.90
2018-11-01T02:24:18.677Z,73.30
2018-11-01T02:29:22.378Z,72.80
2018-11-01T02:34:26.191Z,74.00
2018-11-01T02:39:30.237Z,73.00
2018-11-01T02:44:34.861Z,72.60
2018-11-01T02:49:43.338Z,73.30
2018-11-01T02:54:47.076Z,74.40
2018-11-01T02:59:52.464Z,74.00
2018-11-01T03:04:56.189Z,73.90
2018-11-01T03:10:01.329Z,74.40
2018-11-01T03:15:06.147Z,73.20
2018-11-01T03:20:11.177Z,72.70
2018-11-01T03:25:14.948Z,72.80
2018-11-01T03:30:19.030Z,73.00
2018-11-01T03:35:22.716Z,73.40
2018-11-01T03:40:26.438Z,73.60
2018-11-01T03:45:30.159Z,73.60
2018-11-01T03:50:33.864Z,73.10
2018-11-01T03:55:38.133Z,73.50
2018-11-01T04:00:42.799Z,73.30
2018-11-01T04:05:46.639Z,73.80
2018-11-01T04:10:51.191Z,73.90
2018-11-01T04:15:55.252Z,73.90
2018-11-01T04:20:58.992Z,73.40
2018-11-01T04:26:02.723Z,73.50
2018-11-01T04:31:07.071Z,73.40
2018-11-01T04:36:10.884Z,72.50
2018-11-01T04:41:14.631Z,74.10
2018-11-01T04:46:18.618Z,74.80
2018-11-01T04:51:22.253Z,74.80
2018-11-01T04:56:25.887Z,74.50
2018-11-01T05:01:30.480Z,74.20
2018-11-01T05:06:34.722Z,74.80
2018-11-01T05:11:38.391Z,74.30
2018-11-01T05:16:42.063Z,75.60
2018-11-01T05:21:45.928Z,75.00
2018-11-01T05:26:51.675Z,76.00
2018-11-01T05:31:55.350Z,75.60
2018-11-01T05:36:59.805Z,76.50
2018-11-01T05:42:03.488Z,77.30
2018-11-01T05:47:12.068Z,76.50
2018-11-01T05:52:15.786Z,76.00
2018-11-01T05:57:20.760Z,76.10
2018-11-01T06:02:32.966Z,76.00
2018-11-01T06:07:40.009Z,75.90
2018-11-01T06:12:43.631Z,75.90
2018-11-01T06:17:47.372Z,75.90
2018-11-01T06:22:54.656Z,76.70
2018-11-01T06:27:58.336Z,76.80
2018-11-01T06:33:02.692Z,77.10
2018-11-01T06:38:06.844Z,77.10
2018-11-01T06:43:10.484Z,76.60
2018-11-01T06:48:14.128Z,75.90
2018-11-01T06:53:17.763Z,75.50
2018-11-01T06:58:21.744Z,75.10
2018-11-01T07:03:25.376Z,75.60
2018-11-01T07:08:29.072Z,76.60
2018-11-01T07:13:32.692Z,76.30
2018-11-01T07:18:36.437Z,76.50
2018-11-01T07:23:40.202Z,77.40
2018-11-01T07:28:43.873Z,78.10
2018-11-01T07:33:48.130Z,77.50
2018-11-01T07:38:52.459Z,77.60
2018-11-01T07:43:56.067Z,78.00
2018-11-01T07:48:59.696Z,77.80
2018-11-01T07:54:05.331Z,77.40
2018-11-01T07:59:09.005Z,77.60
2018-11-01T08:04:14.144Z,77.60
2018-11-01T08:09:17.975Z,77.40
2018-11-01T08:14:21.667Z,79.70
2018-11-01T08:19:25.463Z,79.80
2018-11-01T08:24:29.111Z,79.60
2018-11-01T08:29:32.943Z,79.40
2018-11-01T08:34:37.702Z,80.10
2018-11-01T08:39:41.411Z,80.80
2018-11-01T08:44:45.036Z,81.70
2018-11-01T08:49:48.816Z,80.80
2018-11-01T08:54:52.519Z,80.00
2018-11-01T08:59:56.200Z,81.50
2018-11-01T09:05:00.056Z,80.70
2018-11-01T09:10:04.919Z,79.60
2018-11-01T09:15:10.728Z,78.50
2018-11-01T09:20:14.462Z,77.30
2018-11-01T09:25:18.132Z,77.30
2018-11-01T09:30:21.786Z,78.70
2018-11-01T09:35:26.539Z,74.90
2018-11-01T09:40:30.205Z,69.20
2018-11-01T09:45:35.615Z,61.40
2018-11-01T09:50:39.356Z,52.80
2018-11-01T09:55:43.043Z,47.60
2018-11-01T10:00:46.753Z,47.40
2018-11-01T10:05:50.543Z,44.80
2018-11-01T10:10:54.518Z,42.70
2018-11-01T10:15:58.742Z,42.70
2018-11-01T10:21:03.204Z,42.30
2018-11-01T10:26:07.418Z,43.10
2018-11-01T10:31:11.134Z,39.60
2018-11-01T10:36:16.237Z,40.20
2018-11-01T10:41:24.887Z,42.10
2018-11-01T10:46:28.863Z,41.70
2018-11-01T10:51:32.633Z,41.10
2018-11-01T10:56:36.549Z,41.20
2018-11-01T11:01:45.723Z,40.70
2018-11-01T11:06:49.447Z,42.00
2018-11-01T11:11:53.095Z,45.00
2018-11-01T11:16:57.016Z,45.90
2018-11-01T11:22:00.980Z,47.60
2018-11-01T11:27:04.888Z,49.20
2018-11-01T11:32:09.391Z,48.40
2018-11-01T11:37:13.591Z,49.20
2018-11-01T11:42:17.953Z,50.00
2018-11-01T11:47:21.604Z,50.20
2018-11-01T12:02:31.925Z,49.40
2018-11-01T12:07:36.425Z,48.30
2018-11-01T12:12:40.391Z,48.30
2018-11-01T12:17:44.245Z,47.30
2018-11-01T12:22:47.945Z,48.10
2018-11-01T12:27:51.546Z,48.80
2018-11-01T12:32:55.149Z,49.20
2018-11-01T12:37:58.816Z,48.00
2018-11-01T12:43:02.830Z,48.10
2018-11-01T12:48:06.532Z,46.70
2018-11-01T12:53:10.270Z,47.30
2018-11-01T12:58:13.844Z,47.70
2018-11-01T13:03:17.563Z,47.30
2018-11-01T13:08:21.258Z,47.60
2018-11-01T13:13:24.816Z,47.80
2018-11-01T13:18:28.383Z,46.20
2018-11-01T13:23:32.358Z,46.50
2018-11-01T13:28:36.754Z,46.80
2018-11-01T13:33:40.853Z,45.90
2018-11-01T13:38:45.328Z,45.60
2018-11-01T13:43:49.230Z,45.10
2018-11-01T13:58:59.781Z,44.50
2018-11-01T14:04:03.389Z,43.20
2018-11-01T14:09:08.909Z,44.00
2018-11-01T14:14:13.799Z,44.40
2018-11-01T14:19:17.393Z,44.90
2018-11-01T14:24:21.020Z,44.90
2018-11-01T14:29:24.786Z,43.60
2018-11-01T14:34:28.961Z,43.90
2018-11-01T14:39:32.596Z,43.60
2018-11-01T14:44:36.246Z,43.00
2018-11-01T14:49:40.035Z,43.10
2018-11-01T14:54:44.561Z,44.10
2018-11-01T14:59:48.527Z,43.00
2018-11-01T15:04:54.393Z,44.10
2018-11-01T15:09:58.931Z,43.90
2018-11-01T15:15:02.714Z,43.90
2018-11-01T15:20:07.498Z,44.20
2018-11-01T15:25:11.841Z,44.10
2018-11-01T15:30:16.319Z,45.10
2018-11-01T15:35:19.875Z,46.30
2018-11-01T15:40:24.391Z,47.40
2018-11-01T15:45:28.053Z,48.70
2018-11-01T15:50:32.028Z,50.10
2018-11-01T15:55:36.130Z,50.30
2018-11-01T16:00:39.718Z,51.20
2018-11-01T16:05:43.486Z,52.10
2018-11-01T16:10:47.466Z,52.70
2018-11-01T16:15:51.371Z,53.40
2018-11-01T16:20:55.048Z,54.30
2018-11-01T16:25:58.732Z,55.00
2018-11-01T16:31:02.344Z,55.30
2018-11-01T16:36:06.110Z,55.90
2018-11-01T16:41:09.805Z,56.10
2018-11-01T16:46:14.735Z,56.00
2018-11-01T16:51:18.484Z,57.00
2018-11-01T16:56:22.092Z,57.70
2018-11-01T17:01:25.773Z,58.40
2018-11-01T17:06:30.207Z,58.80
2018-11-01T17:11:33.822Z,59.30
2018-11-01T17:16:37.944Z,59.10
2018-11-01T17:21:41.580Z,59.70
2018-11-01T17:26:45.334Z,59.40
2018-11-01T17:31:48.990Z,59.80
2018-11-01T17:36:52.650Z,60.50
2018-11-01T17:41:56.905Z,59.60
2018-11-01T17:47:00.987Z,60.40
2018-11-01T17:52:04.877Z,60.90
2018-11-01T17:57:08.657Z,61.40
2018-11-01T18:02:12.293Z,61.30
2018-11-01T18:07:16.043Z,61.10
2018-11-01T18:12:22.576Z,61.00
2018-11-01T18:17:26.355Z,62.10
2018-11-01T18:22:30.009Z,63.00
2018-11-01T18:27:33.899Z,62.70
2018-11-01T18:32:37.674Z,63.30
2018-11-01T18:37:42.179Z,62.60
2018-11-01T18:42:46.045Z,61.50
2018-11-01T18:47:49.717Z,62.10
2018-11-01T18:52:53.325Z,63.70
2018-11-01T18:57:58.022Z,63.90
2018-11-01T19:03:01.636Z,62.90
2018-11-01T19:08:12.275Z,62.40
2018-11-01T19:13:16.050Z,62.10
2018-11-01T19:18:20.412Z,61.10
2018-11-01T19:23:24.041Z,60.40
2018-11-01T19:28:27.807Z,60.10
2018-11-01T19:33:31.779Z,59.60
2018-11-01T19:38:37.343Z,59.50
2018-11-01T19:43:41.060Z,59.60
2018-11-01T19:48:44.818Z,59.80
2018-11-01T19:53:48.641Z,59.40
2018-11-01T19:58:52.403Z,59.40
2018-11-01T20:03:56.092Z,60.40
2018-11-01T20:09:00.020Z,61.40
2018-11-01T20:14:03.938Z,61.90
2018-11-01T20:19:07.849Z,62.80
2018-11-01T20:24:11.728Z,62.90
2018-11-01T20:29:15.825Z,63.20
2018-11-01T20:34:19.440Z,63.80
2018-11-01T20:39:23.318Z,64.10
2018-11-01T20:44:26.981Z,65.00
2018-11-01T20:49:30.685Z,64.90
2018-11-01T20:54:34.404Z,65.40
2018-11-01T20:59:38.128Z,64.50
2018-11-01T21:04:41.751Z,64.10
2018-11-01T21:09:45.392Z,64.00
2018-11-01T21:14:49.782Z,64.50
2018-11-01T21:19:53.410Z,65.60
2018-11-01T21:24:57.051Z,65.40
2018-11-01T21:30:00.789Z,64.00
2018-11-01T21:35:04.674Z,63.80
2018-11-01T21:40:09.759Z,64.40
2018-11-01T21:45:14.318Z,63.60
2018-11-01T21:50:18.339Z,63.80
2018-11-01T21:55:22.305Z,63.70
2018-11-01T22:00:26.340Z,64.90
2018-11-01T22:05:30.186Z,65.60
2018-11-01T22:10:34.230Z,66.20
2018-11-01T22:15:38.177Z,66.40
2018-11-01T22:20:41.867Z,68.10
2018-11-01T22:25:45.757Z,67.80
2018-11-01T22:30:49.710Z,66.90
2018-11-01T22:35:53.678Z,65.10
2018-11-01T22:40:57.544Z,65.30
2018-11-01T22:46:01.504Z,66.00
2018-11-01T22:51:06.322Z,66.20
2018-11-01T22:56:11.414Z,67.60
2018-11-01T23:01:15.277Z,67.70
2018-11-01T23:06:19.219Z,68.00
2018-11-01T23:11:23.072Z,67.80
2018-11-01T23:16:26.897Z,68.10
2018-11-01T23:21:30.908Z,68.60
2018-11-01T23:26:34.751Z,68.10
2018-11-01T23:31:38.326Z,68.50
2018-11-01T23:36:47.040Z,69.20
2018-11-01T23:41:55.993Z,69.60
2018-11-01T23:47:04.896Z,69.40
2018-11-01T23:52:19.983Z,69.20
2018-11-01T23:57:23.608Z,69.30
